createdAt,value
2017-09-15T00:00:44.053Z,24.2
2017-09-15T00:01:46.178Z,24.2
2017-09-15T00:02:47.997Z,24.2
2017-09-15T00:03:49.451Z,24.2
2017-09-15T00:04:50.891Z,24.2
2017-09-15T00:05:53.020Z,24.2
2017-09-15T00:06:54.457Z,24.2
2017-09-15T00:07:56.250Z,24.2
2017-09-15T00:08:58.384Z,24.2
2017-09-15T00:10:00.174Z,24.2
2017-09-15T00:11:02.305Z,24.3
2017-09-15T00:12:03.785Z,24.2
2017-09-15T00:13:05.579Z,24.1
2017-09-15T00:14:07.371Z,24.2
2017-09-15T00:15:09.502Z,24.2
2017-09-15T00:16:11.631Z,24.2
2017-09-15T00:17:13.788Z,24.2
2017-09-15T00:18:15.907Z,24.2
2017-09-15T00:19:17.366Z,24.1
2017-09-15T00:20:19.492Z,24.2
2017-09-15T00:21:21.619Z,24.2
2017-09-15T00:22:23.412Z,24.2
2017-09-15T00:23:25.539Z,24.2
2017-09-15T00:24:27.332Z,24.1
2017-09-15T00:25:29.464Z,24.1
2017-09-15T00:26:31.255Z,24.2
2017-09-15T00:27:33.050Z,24.2
2017-09-15T00:28:34.489Z,24.2
2017-09-15T00:29:36.280Z,24.1
2017-09-15T00:30:38.407Z,24.2
2017-09-15T00:31:39.866Z,24.2
2017-09-15T00:32:40.970Z,24.1
2017-09-15T00:33:42.766Z,24.2
2017-09-15T00:34:44.894Z,24.1
2017-09-15T00:35:46.329Z,24.2
2017-09-15T00:36:48.122Z,24.1
2017-09-15T00:37:49.914Z,24.2
2017-09-15T00:38:51.712Z,24.3
2017-09-15T00:39:53.847Z,24.3
2017-09-15T00:40:55.285Z,24.1
2017-09-15T00:41:57.077Z,24.1
2017-09-15T00:42:58.869Z,24.1
2017-09-15T00:44:01.000Z,24.2
2017-09-15T00:45:02.789Z,24.1
2017-09-15T00:46:04.586Z,24.1
2017-09-15T00:47:06.020Z,24.1
2017-09-15T00:48:07.792Z,24.2
2017-09-15T00:49:09.564Z,24.2
2017-09-15T00:50:11.357Z,24.1
2017-09-15T00:51:13.151Z,24.2
2017-09-15T00:52:14.612Z,24.1
2017-09-15T00:53:16.407Z,24.2
2017-09-15T00:54:18.211Z,24.1
2017-09-15T00:55:20.015Z,24.1
2017-09-15T00:56:21.445Z,24.1
2017-09-15T00:57:22.879Z,24.1
2017-09-15T00:58:24.673Z,24.1
2017-09-15T00:59:26.465Z,24.1
2017-09-15T01:00:27.922Z,24.1
2017-09-15T01:01:30.050Z,24.1
2017-09-15T01:02:31.846Z,24.1
2017-09-15T01:03:33.284Z,24.3
2017-09-15T01:04:35.411Z,24.1
2017-09-15T01:05:37.540Z,24.1
2017-09-15T01:06:38.976Z,24.2
2017-09-15T01:07:40.771Z,24.1
2017-09-15T01:08:42.204Z,24.1
2017-09-15T01:09:43.977Z,24.2
2017-09-15T01:10:45.749Z,24.1
2017-09-15T01:11:47.519Z,24.1
2017-09-15T01:12:49.313Z,24.1
2017-09-15T01:13:51.441Z,24.2
2017-09-15T01:14:52.877Z,24.3
2017-09-15T01:15:54.335Z,24.2
2017-09-15T01:16:55.790Z,24.1
2017-09-15T01:17:57.227Z,24.2
2017-09-15T01:18:59.352Z,24
2017-09-15T01:20:00.787Z,24.1
2017-09-15T01:21:02.229Z,24.1
2017-09-15T01:22:04.353Z,24.1
2017-09-15T01:23:06.145Z,24.1
2017-09-15T01:24:07.274Z,24.1
2017-09-15T01:25:09.072Z,24
2017-09-15T01:26:10.583Z,24.1
2017-09-15T01:27:12.396Z,24.1
2017-09-15T01:28:13.833Z,24.1
2017-09-15T01:29:15.275Z,24.1
2017-09-15T01:30:17.063Z,24.1
2017-09-15T01:31:18.857Z,24.1
2017-09-15T01:32:20.984Z,24.1
2017-09-15T01:33:22.087Z,24.1
2017-09-15T01:34:23.880Z,24
2017-09-15T01:35:25.653Z,24.1
2017-09-15T01:36:27.779Z,24
2017-09-15T01:37:29.905Z,24.2
2017-09-15T01:38:31.695Z,24.1
2017-09-15T01:39:33.492Z,24.1
2017-09-15T01:40:34.620Z,24.2
2017-09-15T01:41:36.747Z,24.1
2017-09-15T01:42:38.517Z,24.1
2017-09-15T01:43:40.647Z,24.1
2017-09-15T01:44:42.787Z,24.1
2017-09-15T01:45:44.560Z,24.2
2017-09-15T01:46:46.713Z,24.2
2017-09-15T01:47:48.146Z,24.2
2017-09-15T01:48:50.303Z,24.2
2017-09-15T01:49:52.074Z,24.1
2017-09-15T01:50:53.533Z,24
2017-09-15T01:51:55.306Z,24.2
2017-09-15T01:52:57.098Z,24.1
2017-09-15T01:53:58.892Z,24.1
2017-09-15T01:55:00.328Z,24.2
2017-09-15T01:56:02.102Z,24.1
2017-09-15T01:57:02.869Z,24.1
2017-09-15T01:58:04.996Z,24.1
2017-09-15T01:59:06.102Z,24.2
2017-09-15T02:00:07.876Z,24.1
2017-09-15T02:01:08.976Z,24.1
2017-09-15T02:02:10.769Z,24.1
2017-09-15T02:03:12.558Z,24.2
2017-09-15T02:04:13.994Z,24.1
2017-09-15T02:05:15.450Z,24.1
2017-09-15T02:06:17.244Z,24.2
2017-09-15T02:07:19.037Z,24.2
2017-09-15T02:08:20.829Z,24
2017-09-15T02:09:22.622Z,24.1
2017-09-15T02:10:23.720Z,24.1
2017-09-15T02:11:25.513Z,24.1
2017-09-15T02:12:27.641Z,24.1
2017-09-15T02:13:29.079Z,24.2
2017-09-15T02:14:30.202Z,24.1
2017-09-15T02:15:31.994Z,24.1
2017-09-15T02:16:33.766Z,24
2017-09-15T02:17:35.538Z,24
2017-09-15T02:18:37.310Z,24.1
2017-09-15T02:19:38.438Z,24.1
2017-09-15T02:20:40.229Z,24.1
2017-09-15T02:21:42.020Z,24.1
2017-09-15T02:22:43.812Z,24.1
2017-09-15T02:23:45.274Z,24.1
2017-09-15T02:24:47.406Z,24.1
2017-09-15T02:25:49.198Z,24.1
2017-09-15T02:26:50.989Z,24
2017-09-15T02:27:52.090Z,24
2017-09-15T02:28:53.528Z,24.1
2017-09-15T02:29:55.320Z,24
2017-09-15T02:30:57.111Z,24
2017-09-15T02:31:59.238Z,24.1
2017-09-15T02:33:01.051Z,24.1
2017-09-15T02:34:03.177Z,24.1
2017-09-15T02:35:04.636Z,24.1
2017-09-15T02:36:06.406Z,24.1
2017-09-15T02:37:08.201Z,24.2
2017-09-15T02:38:09.657Z,24.1
2017-09-15T02:39:11.114Z,24.1
2017-09-15T02:40:12.908Z,24.1
2017-09-15T02:41:14.681Z,24.1
2017-09-15T02:42:16.810Z,24.1
2017-09-15T02:43:17.934Z,24.1
2017-09-15T02:44:20.061Z,24
2017-09-15T02:45:22.189Z,24.1
2017-09-15T02:46:24.007Z,24.1
2017-09-15T02:47:25.803Z,24
2017-09-15T02:48:27.931Z,24.1
2017-09-15T02:49:29.729Z,24
2017-09-15T02:50:31.501Z,24.1
2017-09-15T02:51:33.293Z,24.1
2017-09-15T02:52:34.743Z,24.1
2017-09-15T02:53:36.537Z,24.1
2017-09-15T02:54:38.333Z,24.1
2017-09-15T02:55:40.105Z,24.1
2017-09-15T02:56:41.878Z,24.1
2017-09-15T02:57:44.006Z,24
2017-09-15T02:58:45.845Z,24.1
2017-09-15T02:59:47.282Z,24.1
2017-09-15T03:00:48.719Z,24.1
2017-09-15T03:01:50.512Z,24.1
2017-09-15T03:02:52.305Z,24.1
2017-09-15T03:03:54.096Z,24.1
2017-09-15T03:04:55.890Z,24.1
2017-09-15T03:05:58.016Z,24.1
2017-09-15T03:06:59.454Z,24.1
2017-09-15T03:08:01.244Z,24.1
2017-09-15T03:09:03.372Z,24.1
2017-09-15T03:10:04.870Z,24.1
2017-09-15T03:11:06.662Z,24
2017-09-15T03:12:08.122Z,24.1
2017-09-15T03:13:10.251Z,24.1
2017-09-15T03:14:12.046Z,24.1
2017-09-15T03:15:13.837Z,24
2017-09-15T03:16:15.630Z,24.1
2017-09-15T03:17:17.431Z,24.1
2017-09-15T03:18:18.890Z,24
2017-09-15T03:19:20.330Z,24.1
2017-09-15T03:20:21.788Z,24
2017-09-15T03:21:23.583Z,24.1
2017-09-15T03:22:25.707Z,24.1
2017-09-15T03:23:27.836Z,24.1
2017-09-15T03:24:29.610Z,24
2017-09-15T03:25:31.405Z,24
2017-09-15T03:26:33.198Z,24
2017-09-15T03:27:34.991Z,24
2017-09-15T03:28:36.794Z,24.1
2017-09-15T03:29:38.250Z,24.1
2017-09-15T03:30:40.376Z,24
2017-09-15T03:31:42.171Z,24
2017-09-15T03:32:43.274Z,24.1
2017-09-15T03:33:45.049Z,24.1
2017-09-15T03:34:47.176Z,24.1
2017-09-15T03:35:48.971Z,24.1
2017-09-15T03:36:50.765Z,24.1
2017-09-15T03:37:52.898Z,24
2017-09-15T03:38:54.687Z,24.1
2017-09-15T03:39:56.481Z,24
2017-09-15T03:40:58.609Z,24
2017-09-15T03:42:00.402Z,24.1
2017-09-15T03:43:02.198Z,24.1
2017-09-15T03:44:03.632Z,24.1
2017-09-15T03:45:05.403Z,24.1
2017-09-15T03:46:07.532Z,24.1
2017-09-15T03:47:09.656Z,24
2017-09-15T03:48:11.114Z,24.1
2017-09-15T03:49:12.574Z,24
2017-09-15T03:50:14.371Z,24
2017-09-15T03:51:16.163Z,24
2017-09-15T03:52:17.958Z,24.1
2017-09-15T03:53:19.417Z,24
2017-09-15T03:54:21.543Z,24
2017-09-15T03:55:23.340Z,24.1
2017-09-15T03:56:25.129Z,24
2017-09-15T03:57:26.900Z,24.1
2017-09-15T03:58:29.030Z,24
2017-09-15T03:59:30.818Z,24.1
2017-09-15T04:00:32.274Z,24
2017-09-15T04:01:34.071Z,24
2017-09-15T04:02:36.193Z,24
2017-09-15T04:03:37.659Z,24
2017-09-15T04:04:39.781Z,24
2017-09-15T04:05:41.918Z,24
2017-09-15T04:06:43.693Z,24
2017-09-15T04:07:45.154Z,24
2017-09-15T04:08:46.924Z,24
2017-09-15T04:09:48.366Z,24
2017-09-15T04:10:50.514Z,23.9
2017-09-15T04:11:52.640Z,24
2017-09-15T04:12:54.788Z,24
2017-09-15T04:13:56.579Z,24
2017-09-15T04:14:58.016Z,24
2017-09-15T04:15:59.476Z,23.9
2017-09-15T04:17:00.942Z,24
2017-09-15T04:18:02.734Z,23.9
2017-09-15T04:19:04.192Z,24
2017-09-15T04:20:06.319Z,23.9
2017-09-15T04:21:08.137Z,24
2017-09-15T04:22:09.929Z,24
2017-09-15T04:23:12.057Z,24
2017-09-15T04:24:13.496Z,24
2017-09-15T04:25:15.621Z,24
2017-09-15T04:26:16.747Z,24
2017-09-15T04:27:18.539Z,24
2017-09-15T04:28:20.667Z,24.1
2017-09-15T04:29:22.510Z,24
2017-09-15T04:30:24.303Z,24
2017-09-15T04:31:25.761Z,24.1
2017-09-15T04:32:27.553Z,24.2
2017-09-15T04:33:29.330Z,24.1
2017-09-15T04:34:31.126Z,24.1
2017-09-15T04:35:33.259Z,24
2017-09-15T04:36:35.052Z,24
2017-09-15T04:37:36.160Z,24.1
2017-09-15T04:38:37.600Z,24
2017-09-15T04:39:39.729Z,24.1
2017-09-15T04:40:41.855Z,24.1
2017-09-15T04:41:43.294Z,24.1
2017-09-15T04:42:45.421Z,24.2
2017-09-15T04:43:47.569Z,24.1
2017-09-15T04:44:49.362Z,24.1
2017-09-15T04:45:51.503Z,24.2
2017-09-15T04:46:53.283Z,24.2
2017-09-15T04:47:55.062Z,24.1
2017-09-15T04:48:56.529Z,24
2017-09-15T04:49:58.316Z,24
2017-09-15T04:50:59.750Z,24.1
2017-09-15T04:52:00.522Z,24.1
2017-09-15T04:53:01.646Z,24.1
2017-09-15T04:54:03.439Z,24.1
2017-09-15T04:55:04.904Z,24.1
2017-09-15T04:56:06.673Z,24.2
2017-09-15T04:57:08.441Z,24.1
2017-09-15T04:58:09.878Z,24.1
2017-09-15T04:59:11.672Z,24.1
2017-09-15T05:00:13.442Z,24.1
2017-09-15T05:01:15.212Z,24.1
2017-09-15T05:02:17.339Z,24.2
2017-09-15T05:03:18.777Z,24
2017-09-15T05:04:20.610Z,24
2017-09-15T05:05:22.404Z,24.1
2017-09-15T05:06:24.195Z,24.2
2017-09-15T05:07:25.992Z,24.1
2017-09-15T05:08:27.786Z,24.2
2017-09-15T05:09:29.910Z,24.2
2017-09-15T05:10:31.692Z,24.1
2017-09-15T05:11:33.499Z,24.1
2017-09-15T05:12:34.963Z,24.1
2017-09-15T05:13:37.092Z,24.1
2017-09-15T05:14:38.885Z,24.1
2017-09-15T05:15:41.017Z,24.1
2017-09-15T05:16:43.143Z,24.2
2017-09-15T05:17:44.936Z,24.1
2017-09-15T05:18:46.733Z,24.1
2017-09-15T05:19:48.861Z,24.2
2017-09-15T05:20:50.988Z,24.1
2017-09-15T05:21:53.117Z,24.1
2017-09-15T05:22:54.891Z,24.2
2017-09-15T05:23:57.020Z,24.2
2017-09-15T05:24:58.821Z,24.1
2017-09-15T05:26:00.284Z,24.2
2017-09-15T05:27:02.412Z,24.1
2017-09-15T05:28:04.210Z,24.1
2017-09-15T05:29:05.671Z,24.1
2017-09-15T05:30:07.806Z,24.1
2017-09-15T05:31:09.652Z,24.1
2017-09-15T05:32:11.445Z,24.1
2017-09-15T05:33:12.901Z,24.1
2017-09-15T05:34:14.674Z,24.2
2017-09-15T05:35:16.804Z,24.3
2017-09-15T05:36:18.239Z,24.1
2017-09-15T05:37:20.372Z,24.2
2017-09-15T05:38:22.141Z,24.1
2017-09-15T05:39:23.941Z,24.2
2017-09-15T05:40:25.376Z,24.2
2017-09-15T05:41:26.835Z,24.2
2017-09-15T05:42:28.299Z,24.2
2017-09-15T05:43:29.762Z,24.2
2017-09-15T05:44:31.556Z,24.2
2017-09-15T05:45:33.016Z,24.3
2017-09-15T05:46:35.165Z,24.2
2017-09-15T05:47:36.626Z,24.2
2017-09-15T05:48:38.420Z,24.2
2017-09-15T05:49:40.217Z,24.2
2017-09-15T05:50:41.656Z,24.3
2017-09-15T05:51:43.887Z,24.2
2017-09-15T05:52:45.684Z,24.2
2017-09-15T05:53:47.138Z,24.2
2017-09-15T05:54:49.266Z,24.3
2017-09-15T05:55:50.708Z,24.3
2017-09-15T05:56:52.834Z,24.2
2017-09-15T05:57:54.634Z,24.3
2017-09-15T05:58:56.424Z,24.2
2017-09-15T05:59:57.522Z,24.2
2017-09-15T06:00:59.681Z,24.2
2017-09-15T06:02:01.120Z,24.2
2017-09-15T06:03:02.912Z,24.2
2017-09-15T06:04:04.353Z,24.2
2017-09-15T06:05:06.497Z,24.3
2017-09-15T06:06:08.295Z,24.3
2017-09-15T06:07:10.068Z,24.2
2017-09-15T06:08:12.201Z,24.2
2017-09-15T06:09:13.643Z,24.3
2017-09-15T06:10:15.448Z,24.2
2017-09-15T06:11:17.143Z,24.2
2017-09-15T06:12:18.978Z,24.2
2017-09-15T06:13:20.746Z,24.3
2017-09-15T06:14:22.878Z,24.2
2017-09-15T06:15:24.364Z,24.3
2017-09-15T06:16:26.168Z,24.2
2017-09-15T06:17:28.349Z,24.2
2017-09-15T06:18:29.471Z,24.2
2017-09-15T06:19:31.248Z,24.3
2017-09-15T06:20:33.042Z,24.2
2017-09-15T06:21:35.170Z,24.2
2017-09-15T06:22:36.297Z,24.2
2017-09-15T06:23:38.159Z,24.3
2017-09-15T06:24:40.291Z,24.2
2017-09-15T06:25:42.447Z,24.2
2017-09-15T06:26:43.921Z,24.3
2017-09-15T06:27:45.733Z,24.2
2017-09-15T06:28:47.531Z,24.2
2017-09-15T06:29:49.331Z,24.2
2017-09-15T06:30:51.135Z,24.2
2017-09-15T06:31:53.296Z,24.2
2017-09-15T06:32:55.467Z,24.2
2017-09-15T06:33:57.317Z,24.3
2017-09-15T06:34:58.776Z,24.2
2017-09-15T06:36:00.924Z,24.2
2017-09-15T06:37:02.384Z,24.2
2017-09-15T06:38:03.823Z,24.2
2017-09-15T06:39:05.259Z,24.2
2017-09-15T06:40:06.725Z,24.3
2017-09-15T06:41:08.521Z,24.3
2017-09-15T06:42:10.668Z,24.3
2017-09-15T06:43:12.468Z,24.3
2017-09-15T06:44:13.920Z,24.3
2017-09-15T06:45:15.716Z,24.2
2017-09-15T06:46:16.831Z,24.3
2017-09-15T06:47:18.622Z,24.3
2017-09-15T06:48:19.746Z,24.3
2017-09-15T06:49:21.879Z,24.2
2017-09-15T06:50:22.987Z,24.2
2017-09-15T06:51:24.761Z,24.3
2017-09-15T06:52:26.892Z,24.3
2017-09-15T06:53:28.336Z,24.3
2017-09-15T06:54:30.105Z,24.3
2017-09-15T06:55:31.548Z,24.3
2017-09-15T06:56:32.986Z,24.3
2017-09-15T06:57:34.479Z,24.3
2017-09-15T06:58:36.612Z,24.3
2017-09-15T06:59:38.151Z,24.3
2017-09-15T07:00:39.926Z,24.3
2017-09-15T07:01:41.779Z,24.3
2017-09-15T07:02:43.562Z,24.2
2017-09-15T07:03:45.357Z,24.3
2017-09-15T07:04:47.494Z,24.3
2017-09-15T07:05:48.602Z,24.4
2017-09-15T07:06:50.064Z,24.4
2017-09-15T07:07:51.964Z,24.2
2017-09-15T07:08:53.404Z,24.3
2017-09-15T07:09:55.189Z,24.4
2017-09-15T07:10:56.965Z,24.2
2017-09-15T07:11:59.097Z,24.3
2017-09-15T07:13:00.894Z,24.3
2017-09-15T07:14:03.032Z,24.3
2017-09-15T07:15:04.502Z,24.4
2017-09-15T07:16:06.639Z,24.3
2017-09-15T07:17:08.086Z,24.4
2017-09-15T07:18:09.193Z,24.3
2017-09-15T07:19:10.657Z,24.3
2017-09-15T07:20:12.786Z,24.4
2017-09-15T07:21:14.580Z,24.4
2017-09-15T07:22:16.375Z,24.4
2017-09-15T07:23:17.478Z,24.4
2017-09-15T07:24:18.939Z,24.4
2017-09-15T07:25:20.401Z,24.4
2017-09-15T07:26:22.182Z,24.4
2017-09-15T07:27:23.623Z,24.4
2017-09-15T07:28:25.764Z,24.4
2017-09-15T07:29:27.555Z,24.4
2017-09-15T07:30:28.995Z,24.5
2017-09-15T07:31:30.097Z,24.5
2017-09-15T07:32:31.896Z,24.5
2017-09-15T07:33:33.694Z,24.4
2017-09-15T07:34:35.829Z,24.5
2017-09-15T07:35:37.270Z,24.4
2017-09-15T07:36:38.738Z,24.4
2017-09-15T07:37:40.871Z,24.5
2017-09-15T07:38:42.316Z,24.5
2017-09-15T07:39:44.126Z,24.4
2017-09-15T07:40:46.257Z,24.5
2017-09-15T07:41:47.710Z,24.4
2017-09-15T07:42:49.671Z,24.5
2017-09-15T07:43:51.510Z,24.5
2017-09-15T07:44:53.649Z,24.5
2017-09-15T07:45:54.758Z,24.5
2017-09-15T07:46:56.933Z,24.5
2017-09-15T07:47:58.399Z,24.5
2017-09-15T07:48:59.873Z,24.5
2017-09-15T07:50:01.338Z,24.6
2017-09-15T07:51:03.126Z,24.5
2017-09-15T07:52:04.233Z,24.5
2017-09-15T07:53:05.338Z,24.5
2017-09-15T07:54:07.465Z,24.5
2017-09-15T07:55:09.240Z,24.5
2017-09-15T07:56:11.037Z,24.6
2017-09-15T07:57:13.165Z,24.5
2017-09-15T07:58:14.629Z,24.6
2017-09-15T07:59:16.472Z,24.5
2017-09-15T08:00:18.267Z,24.6
2017-09-15T08:01:19.709Z,24.6
2017-09-15T08:02:21.835Z,24.5
2017-09-15T08:03:23.610Z,24.6
2017-09-15T08:04:25.046Z,24.6
2017-09-15T08:05:26.841Z,24.6
2017-09-15T08:06:28.994Z,24.7
2017-09-15T08:07:30.792Z,24.7
2017-09-15T08:08:32.585Z,24.7
2017-09-15T08:09:33.713Z,24.6
2017-09-15T08:10:35.510Z,24.7
2017-09-15T08:11:36.639Z,24.7
2017-09-15T08:12:38.077Z,24.6
2017-09-15T08:13:39.516Z,24.7
2017-09-15T08:14:41.320Z,24.6
2017-09-15T08:15:43.113Z,24.7
2017-09-15T08:16:45.244Z,24.6
2017-09-15T08:17:47.042Z,24.7
2017-09-15T08:18:48.886Z,24.7
2017-09-15T08:19:51.019Z,24.7
2017-09-15T08:20:53.148Z,24.7
2017-09-15T08:21:54.990Z,24.8
2017-09-15T08:22:56.919Z,24.8
2017-09-15T08:23:58.517Z,24.8
2017-09-15T08:25:00.321Z,24.7
2017-09-15T08:26:01.765Z,24.8
2017-09-15T08:27:03.561Z,24.8
2017-09-15T08:28:05.335Z,24.8
2017-09-15T08:29:07.492Z,24.8
2017-09-15T08:30:09.081Z,24.8
2017-09-15T08:31:10.899Z,24.8
2017-09-15T08:32:13.164Z,24.8
2017-09-15T08:33:14.612Z,24.8
2017-09-15T08:34:16.403Z,24.9
2017-09-15T08:35:17.874Z,24.9
2017-09-15T08:36:19.668Z,24.8
2017-09-15T08:37:21.803Z,24.8
2017-09-15T08:38:23.596Z,24.9
2017-09-15T08:39:25.392Z,24.8
2017-09-15T08:40:26.836Z,24.9
2017-09-15T08:41:27.951Z,24.9
2017-09-15T08:42:29.415Z,24.9
2017-09-15T08:43:30.852Z,24.9
2017-09-15T08:44:32.980Z,24.9
2017-09-15T08:45:34.117Z,24.9
2017-09-15T08:46:36.249Z,24.9
2017-09-15T08:47:37.690Z,24.9
2017-09-15T08:48:39.820Z,25
2017-09-15T08:49:40.926Z,24.9
2017-09-15T08:50:42.717Z,25
2017-09-15T08:51:44.863Z,24.9
2017-09-15T08:52:46.312Z,24.9
2017-09-15T08:53:48.105Z,25
2017-09-15T08:54:50.236Z,24.9
2017-09-15T08:55:52.035Z,24.9
2017-09-15T08:56:53.826Z,24.9
2017-09-15T08:57:55.622Z,24.9
2017-09-15T08:58:57.419Z,24.9
2017-09-15T08:59:59.548Z,25
2017-09-15T09:01:01.345Z,24.9
2017-09-15T09:02:02.826Z,24.9
2017-09-15T09:03:04.959Z,24.9
2017-09-15T09:04:06.754Z,24.9
2017-09-15T09:05:08.197Z,24.9
2017-09-15T09:06:09.637Z,25
2017-09-15T09:07:11.777Z,25
2017-09-15T09:08:13.907Z,25
2017-09-15T09:09:16.038Z,24.9
2017-09-15T09:10:17.831Z,25
2017-09-15T09:11:19.975Z,25
2017-09-15T09:12:21.411Z,25
2017-09-15T09:13:23.545Z,25
2017-09-15T09:14:25.318Z,24.9
2017-09-15T09:15:26.424Z,24.9
2017-09-15T09:16:28.575Z,25
2017-09-15T09:17:30.356Z,25
2017-09-15T09:18:31.798Z,25
2017-09-15T09:19:33.287Z,24.9
2017-09-15T09:20:35.084Z,25
2017-09-15T09:21:36.213Z,25
2017-09-15T09:22:38.010Z,25
2017-09-15T09:23:39.470Z,25
2017-09-15T09:24:41.267Z,24.9
2017-09-15T09:25:42.371Z,25
2017-09-15T09:26:44.519Z,25
2017-09-15T09:27:45.983Z,25
2017-09-15T09:28:48.115Z,25.1
2017-09-15T09:29:49.910Z,25
2017-09-15T09:30:51.685Z,25
2017-09-15T09:31:53.150Z,25
2017-09-15T09:32:54.944Z,25
2017-09-15T09:33:56.062Z,25
2017-09-15T09:34:58.190Z,25
2017-09-15T09:35:59.651Z,25
2017-09-15T09:37:01.781Z,25.1
2017-09-15T09:38:03.244Z,25.1
2017-09-15T09:39:04.138Z,25.1
2017-09-15T09:40:05.933Z,25.1
2017-09-15T09:41:07.397Z,25.1
2017-09-15T09:42:08.836Z,25.1
2017-09-15T09:43:10.970Z,25.1
2017-09-15T09:44:12.764Z,25.1
2017-09-15T09:45:14.229Z,25.1
2017-09-15T09:46:16.359Z,25.3
2017-09-15T09:47:17.828Z,25.1
2017-09-15T09:48:19.285Z,25.1
2017-09-15T09:49:21.083Z,25.2
2017-09-15T09:50:22.521Z,25.1
2017-09-15T09:51:24.650Z,25.1
2017-09-15T09:52:26.801Z,25.2
2017-09-15T09:53:27.576Z,25.2
2017-09-15T09:54:29.374Z,25.2
2017-09-15T09:55:31.174Z,25.1
2017-09-15T09:56:32.643Z,25.1
2017-09-15T09:57:34.419Z,25.2
2017-09-15T09:58:36.223Z,25.2
2017-09-15T09:59:38.352Z,25.2
2017-09-15T10:00:40.150Z,25.1
2017-09-15T10:01:41.927Z,25.2
2017-09-15T10:02:43.057Z,25.2
2017-09-15T10:03:44.493Z,25.2
2017-09-15T10:04:46.287Z,25.2
2017-09-15T10:05:48.436Z,25.2
2017-09-15T10:06:49.878Z,25.2
2017-09-15T10:07:51.672Z,25.2
2017-09-15T10:08:53.807Z,25.3
2017-09-15T10:09:55.608Z,25.3
2017-09-15T10:10:56.713Z,25.3
2017-09-15T10:11:58.162Z,25.3
2017-09-15T10:13:00.292Z,25.4
2017-09-15T10:14:02.090Z,25.4
2017-09-15T10:15:03.191Z,25.4
2017-09-15T10:16:05.320Z,25.4
2017-09-15T10:17:06.779Z,25.3
2017-09-15T10:18:08.577Z,25.4
2017-09-15T10:19:10.711Z,25.3
2017-09-15T10:20:11.481Z,25.3
2017-09-15T10:21:13.612Z,25.4
2017-09-15T10:22:15.074Z,25.4
2017-09-15T10:23:16.516Z,25.3
2017-09-15T10:24:17.983Z,25.4
2017-09-15T10:25:19.755Z,25.3
2017-09-15T10:26:21.528Z,25.3
2017-09-15T10:27:23.323Z,25.3
2017-09-15T10:28:25.119Z,25.4
2017-09-15T10:29:27.251Z,25.4
2017-09-15T10:30:29.044Z,25.3
2017-09-15T10:31:30.507Z,25.3
2017-09-15T10:32:31.948Z,25.3
2017-09-15T10:33:33.726Z,25.3
2017-09-15T10:34:35.158Z,25.3
2017-09-15T10:35:36.959Z,25.3
2017-09-15T10:36:38.092Z,25.3
2017-09-15T10:37:39.889Z,25.3
2017-09-15T10:38:42.026Z,25.4
2017-09-15T10:39:43.490Z,25.4
2017-09-15T10:40:45.284Z,25.3
2017-09-15T10:41:47.416Z,25.3
2017-09-15T10:42:48.853Z,25.4
2017-09-15T10:43:50.646Z,25.3
2017-09-15T10:44:51.752Z,25.4
2017-09-15T10:45:53.546Z,25.4
2017-09-15T10:46:55.319Z,25.3
2017-09-15T10:47:56.781Z,25.3
2017-09-15T10:48:58.245Z,25.4
2017-09-15T10:50:00.073Z,25.2
2017-09-15T10:51:01.872Z,25.3
2017-09-15T10:52:03.667Z,25.3
2017-09-15T10:53:04.768Z,25.3
2017-09-15T10:54:05.874Z,25.3
2017-09-15T10:55:07.646Z,25.2
2017-09-15T10:56:09.440Z,25.3
2017-09-15T10:57:10.876Z,25.3
2017-09-15T10:58:12.006Z,25.3
2017-09-15T10:59:13.812Z,25.3
2017-09-15T11:00:15.244Z,25.3
2017-09-15T11:01:16.706Z,25.3
2017-09-15T11:02:18.164Z,25.3
2017-09-15T11:03:20.293Z,25.3
2017-09-15T11:04:22.088Z,25.3
2017-09-15T11:05:23.937Z,25.3
2017-09-15T11:06:25.731Z,25.3
2017-09-15T11:07:27.190Z,25.3
2017-09-15T11:08:28.965Z,25.4
2017-09-15T11:09:30.427Z,25.3
2017-09-15T11:10:32.558Z,25.4
2017-09-15T11:11:34.693Z,25.4
2017-09-15T11:12:35.822Z,25.3
2017-09-15T11:13:37.617Z,25.3
2017-09-15T11:14:39.750Z,25.4
2017-09-15T11:15:41.546Z,25.3
2017-09-15T11:16:43.012Z,25.4
2017-09-15T11:17:44.802Z,25.4
2017-09-15T11:18:46.600Z,25.3
2017-09-15T11:19:48.398Z,25.4
2017-09-15T11:20:50.196Z,25.4
2017-09-15T11:21:52.333Z,25.3
2017-09-15T11:22:54.130Z,25.4
2017-09-15T11:23:56.259Z,25.4
2017-09-15T11:24:58.441Z,25.4
2017-09-15T11:25:59.881Z,25.4
2017-09-15T11:27:01.319Z,25.4
2017-09-15T11:28:02.449Z,25.5
2017-09-15T11:29:04.245Z,25.5
2017-09-15T11:30:06.477Z,25.4
2017-09-15T11:31:07.941Z,25.4
2017-09-15T11:32:09.732Z,25.4
2017-09-15T11:33:11.860Z,25.5
2017-09-15T11:34:13.298Z,25.4
2017-09-15T11:35:14.409Z,25.4
2017-09-15T11:36:16.208Z,25.5
2017-09-15T11:37:17.647Z,25.4
2017-09-15T11:38:19.778Z,25.4
2017-09-15T11:39:21.576Z,25.5
2017-09-15T11:40:23.367Z,25.4
2017-09-15T11:41:24.493Z,25.5
2017-09-15T11:42:26.624Z,25.4
2017-09-15T11:43:28.070Z,25.5
2017-09-15T11:44:29.530Z,25.4
2017-09-15T11:45:31.661Z,25.4
2017-09-15T11:46:33.793Z,25.4
2017-09-15T11:47:35.243Z,25.5
2017-09-15T11:48:37.376Z,25.5
2017-09-15T11:49:39.178Z,25.5
2017-09-15T11:50:40.640Z,25.5
2017-09-15T11:51:42.435Z,25.5
2017-09-15T11:52:44.234Z,25.5
2017-09-15T11:53:46.032Z,25.5
2017-09-15T11:54:47.492Z,25.5
2017-09-15T11:55:49.624Z,25.6
2017-09-15T11:56:51.418Z,25.5
2017-09-15T11:57:53.219Z,25.5
2017-09-15T11:58:55.011Z,25.5
2017-09-15T11:59:57.145Z,25.5
2017-09-15T12:00:58.583Z,25.5
2017-09-15T12:02:00.386Z,25.5
2017-09-15T12:03:01.823Z,25.5
2017-09-15T12:04:03.958Z,25.5
2017-09-15T12:05:05.727Z,25.5
2017-09-15T12:06:06.830Z,25.5
2017-09-15T12:07:08.961Z,25.5
2017-09-15T12:08:10.401Z,25.5
2017-09-15T12:09:11.858Z,25.6
2017-09-15T12:10:13.633Z,25.6
2017-09-15T12:11:15.765Z,25.5
2017-09-15T12:12:17.207Z,25.6
2017-09-15T12:13:18.664Z,25.6
2017-09-15T12:14:20.458Z,25.6
2017-09-15T12:15:22.589Z,25.6
2017-09-15T12:16:24.385Z,25.6
2017-09-15T12:17:26.511Z,25.5
2017-09-15T12:18:28.289Z,25.5
2017-09-15T12:19:29.747Z,25.5
2017-09-15T12:20:31.187Z,25.6
2017-09-15T12:21:32.982Z,25.6
2017-09-15T12:22:34.780Z,25.6
2017-09-15T12:23:36.241Z,25.6
2017-09-15T12:24:37.686Z,25.5
2017-09-15T12:25:39.477Z,25.6
2017-09-15T12:26:41.618Z,25.6
2017-09-15T12:27:43.746Z,25.6
2017-09-15T12:28:45.876Z,25.7
2017-09-15T12:29:47.314Z,25.6
2017-09-15T12:30:48.423Z,25.6
2017-09-15T12:31:50.204Z,25.6
2017-09-15T12:32:52.002Z,25.7
2017-09-15T12:33:53.804Z,25.6
2017-09-15T12:34:55.262Z,25.6
2017-09-15T12:35:57.061Z,25.7
2017-09-15T12:36:59.189Z,25.7
2017-09-15T12:38:00.964Z,25.6
2017-09-15T12:39:02.761Z,25.6
2017-09-15T12:40:04.559Z,25.6
2017-09-15T12:41:06.358Z,25.6
2017-09-15T12:42:08.488Z,25.6
2017-09-15T12:43:09.597Z,25.6
2017-09-15T12:44:11.732Z,25.7
2017-09-15T12:45:13.505Z,25.6
2017-09-15T12:46:15.304Z,25.6
2017-09-15T12:47:17.103Z,25.7
2017-09-15T12:48:18.908Z,25.6
2017-09-15T12:49:20.367Z,25.7
2017-09-15T12:50:21.497Z,25.7
2017-09-15T12:51:23.629Z,25.7
2017-09-15T12:52:25.424Z,25.6
2017-09-15T12:53:27.553Z,25.7
2017-09-15T12:54:29.685Z,25.7
2017-09-15T12:55:31.147Z,25.6
2017-09-15T12:56:32.353Z,25.7
2017-09-15T12:57:34.148Z,25.7
2017-09-15T12:58:35.254Z,25.6
2017-09-15T12:59:37.049Z,25.7
2017-09-15T13:00:39.176Z,25.6
2017-09-15T13:01:40.636Z,25.6
2017-09-15T13:02:42.079Z,25.7
2017-09-15T13:03:43.544Z,25.7
2017-09-15T13:04:44.645Z,25.7
2017-09-15T13:05:46.425Z,25.7
2017-09-15T13:06:47.984Z,25.6
2017-09-15T13:07:49.780Z,25.6
2017-09-15T13:08:51.579Z,25.6
2017-09-15T13:09:53.707Z,25.6
2017-09-15T13:10:55.167Z,25.6
2017-09-15T13:11:56.959Z,25.6
2017-09-15T13:12:58.399Z,25.7
2017-09-15T13:14:00.192Z,25.6
2017-09-15T13:15:01.657Z,25.7
2017-09-15T13:16:03.789Z,25.7
2017-09-15T13:17:05.588Z,25.6
2017-09-15T13:18:07.361Z,25.7
2017-09-15T13:19:09.492Z,25.6
2017-09-15T13:20:11.267Z,25.7
2017-09-15T13:21:12.707Z,25.6
2017-09-15T13:22:14.509Z,25.7
2017-09-15T13:23:15.967Z,25.7
2017-09-15T13:24:17.411Z,25.7
2017-09-15T13:25:19.539Z,25.7
2017-09-15T13:26:20.978Z,25.7
2017-09-15T13:27:22.770Z,25.7
2017-09-15T13:28:24.902Z,25.8
2017-09-15T13:29:26.676Z,25.7
2017-09-15T13:30:28.124Z,25.6
2017-09-15T13:31:29.560Z,25.8
2017-09-15T13:32:31.690Z,25.7
2017-09-15T13:33:33.490Z,25.7
2017-09-15T13:34:34.598Z,25.7
2017-09-15T13:35:36.035Z,25.6
2017-09-15T13:36:37.831Z,25.7
2017-09-15T13:37:39.299Z,25.8
2017-09-15T13:38:41.100Z,25.7
2017-09-15T13:39:42.560Z,25.8
2017-09-15T13:40:44.694Z,25.7
2017-09-15T13:41:46.487Z,25.8
2017-09-15T13:42:48.264Z,25.7
2017-09-15T13:43:49.723Z,25.7
2017-09-15T13:44:51.166Z,25.8
2017-09-15T13:45:52.939Z,25.8
2017-09-15T13:46:55.075Z,25.8
2017-09-15T13:47:56.848Z,25.8